Elbella — 9HA2358 — position and weather

sailwx.info

Track history (hours):
 
Tides and Currents Weather Stations Pressure Air Temp Water Temp Dewpoint Dewpoint Depression Visibility Wind Speed Wind Dir Waves Ship Positions

Elbella

Last reported at 2014-Oct-20 12:09 UTC. Time now 2014-Oct-24 10:24 UTC.
Position N 34°29' E 033°35'.

Length 176 m; draft 7.9 m.

Type: Ship (hazmat cat A). MMSI: 248422000.

Date/timePositionNaut miles runAvg speedWind from/ knotsBaromVisibWave heightAir tempDewpointWater temp
2014-Oct-20 12:09N 34°29' E 033°35'813.0
2014-Oct-20 11:33N 34°32' E 033°26'1312.8
2014-Oct-20 10:33N 34°36' E 033°12'9 9.2
2014-Oct-20 09:33N 34°39' E 033°01'0 0.0
2014-Oct-20 08:31N 34°39' E 033°01'0 0.0
2014-Oct-20 07:31N 34°39' E 033°01'0 0.0
2014-Oct-20 06:31N 34°39' E 033°01'0 0.0
2014-Oct-20 05:31N 34°39' E 033°01'0 0.0
2014-Oct-20 04:31N 34°39' E 033°01'1 1.3
2014-Oct-20 03:33N 34°39' E 033°02'1 1.4
2014-Oct-20 02:31N 34°40' E 033°04'0 0.0
2014-Oct-20 01:31N 34°40' E 033°04'0 0.0
2014-Oct-20 00:31N 34°40' E 033°04'0 0.0
2014-Oct-19 23:31N 34°40' E 033°04'0 0.1
2014-Oct-19 22:31N 34°40' E 033°04'0 0.1
2014-Oct-19 21:31N 34°40' E 033°04'0 0.1
2014-Oct-19 20:31N 34°40' E 033°04'0 0.1
2014-Oct-19 19:31N 34°40' E 033°04'0 0.0
2014-Oct-19 18:31N 34°40' E 033°04'0 0.1
2014-Oct-19 17:31N 34°40' E 033°04'0 0.0
2014-Oct-19 16:31N 34°40' E 033°04'0 0.0
2014-Oct-19 15:31N 34°40' E 033°04'0 0.0
2014-Oct-19 14:28N 34°40' E 033°04'0 0.0
2014-Oct-19 13:33N 34°40' E 033°04'6 6.2
2014-Oct-19 12:33N 34°39' E 033°11'1212.0
2014-Oct-19 11:33N 34°38' E 033°26'  
2014-Oct-15 03:30N 36°06' E 026°36'1718.4
2014-Oct-15 02:33N 36°09' E 026°15'1918.5
2014-Oct-15 01:33N 36°11' E 025°52'1918.7
2014-Oct-15 00:33N 36°12' E 025°29'1918.5
2014-Oct-14 23:33N 36°23' E 025°10'1919.1
2014-Oct-14 22:33N 36°35' E 024°51'1817.9
2014-Oct-14 21:33N 36°50' E 024°41'1818.0
2014-Oct-14 20:33N 37°02' E 024°24'1918.6
2014-Oct-14 19:33N 37°14' E 024°06'1818.1
2014-Oct-14 18:33N 37°27' E 023°49'1717.5
2014-Oct-14 17:33N 37°42' E 023°40'1414.2
2014-Oct-14 16:34N 37°56' E 023°36'1 1.0
2014-Oct-14 15:31N 37°57' E 023°36'0 0.0
2014-Oct-14 14:31N 37°57' E 023°36'0 0.0
2014-Oct-14 13:31N 37°57' E 023°36'0 0.0
2014-Oct-14 12:33N 37°57' E 023°36'0 0.0
2014-Oct-14 11:33N 37°57' E 023°36'0 0.0
2014-Oct-14 10:34N 37°57' E 023°36'0 0.0
2014-Oct-14 09:33N 37°57' E 023°36'0 0.0
2014-Oct-14 08:34N 37°57' E 023°36'0 0.0
2014-Oct-14 07:34N 37°57' E 023°36'0 0.0
2014-Oct-14 06:34N 37°57' E 023°36'0 0.0
2014-Oct-14 05:34N 37°57' E 023°36'1 1.1
2014-Oct-14 04:34N 37°56' E 023°36'3 2.8
2014-Oct-14 03:33N 37°54' E 023°35'7 6.7
2014-Oct-14 02:34N 37°49' E 023°40'1615.6
2014-Oct-14 01:33N 37°34' E 023°48'4116.6
2014-Oct-13 23:05N 36°55' E 023°34'916.8
2014-Oct-13 22:33N 36°46' E 023°31'1716.9
2014-Oct-13 21:33N 36°31' E 023°21'41115.0
2014-Oct-12 18:12N 35°49' E 014°55'812.2
2014-Oct-12 17:33N 35°48' E 014°45'1110.1
2014-Oct-12 16:30N 35°49' E 014°32'0 0.4
2014-Oct-12 15:32N 35°49' E 014°33'0 0.0
2014-Oct-12 08:32N 35°49' E 014°33'0 0.0
2014-Oct-12 06:32N 35°49' E 014°33'0 0.0
2014-Oct-11 21:26N 35°49' E 014°33'3 0.5
2014-Oct-11 16:04N 35°49' E 014°36'5 5.9
2014-Oct-11 15:18N 35°51' E 014°41'0 0.0
2014-Oct-11 14:33N 35°51' E 014°41'0 0.0
2014-Oct-11 13:27N 35°51' E 014°41'0 0.0
2014-Oct-11 11:03N 35°51' E 014°41'0 0.1
2014-Oct-11 10:33N 35°51' E 014°41'0 0.1
2014-Oct-11 09:27N 35°51' E 014°41'0 0.1
2014-Oct-11 08:30N 35°51' E 014°41'0 0.0
2014-Oct-11 00:15N 35°51' E 014°41'0 0.0
2014-Oct-10 22:21N 35°51' E 014°41'0 0.0
2014-Oct-10 21:33N 35°51' E 014°41'0 0.1
2014-Oct-10 20:33N 35°51' E 014°41'0 0.0
2014-Oct-10 19:30N 35°51' E 014°41'0 0.0
2014-Oct-10 17:30N 35°51' E 014°41'0 0.0
2014-Oct-10 16:30N 35°51' E 014°41'0 0.0
2014-Oct-10 15:24N 35°51' E 014°41'0 0.0
2014-Oct-10 14:27N 35°51' E 014°41'  
Track history (hours):
 
Tides and Currents Weather Stations Pressure Air Temp Water Temp Dewpoint Dewpoint Depression Visibility Wind Speed Wind Dir Waves Ship Positions

Elbella

Last reported at 2014-Oct-20 12:09 UTC. Time now 2014-Oct-24 10:24 UTC.
Position N 34°29' E 033°35'.

Length 176 m; draft 7.9 m.

Type: Ship (hazmat cat A). MMSI: 248422000.

Date/timePositionNaut miles runAvg speedWind from/ knotsBaromVisibWave heightAir tempDewpointWater temp
2014-Oct-20 12:09N 34°29' E 033°35'813.0
2014-Oct-20 11:33N 34°32' E 033°26'1312.8
2014-Oct-20 10:33N 34°36' E 033°12'9 9.2
2014-Oct-20 09:33N 34°39' E 033°01'0 0.0
2014-Oct-20 08:31N 34°39' E 033°01'0 0.0
2014-Oct-20 07:31N 34°39' E 033°01'0 0.0
2014-Oct-20 06:31N 34°39' E 033°01'0 0.0
2014-Oct-20 05:31N 34°39' E 033°01'0 0.0
2014-Oct-20 04:31N 34°39' E 033°01'1 1.3
2014-Oct-20 03:33N 34°39' E 033°02'1 1.4
2014-Oct-20 02:31N 34°40' E 033°04'0 0.0
2014-Oct-20 01:31N 34°40' E 033°04'0 0.0
2014-Oct-20 00:31N 34°40' E 033°04'0 0.0
2014-Oct-19 23:31N 34°40' E 033°04'0 0.1
2014-Oct-19 22:31N 34°40' E 033°04'0 0.1
2014-Oct-19 21:31N 34°40' E 033°04'0 0.1
2014-Oct-19 20:31N 34°40' E 033°04'0 0.1
2014-Oct-19 19:31N 34°40' E 033°04'0 0.0
2014-Oct-19 18:31N 34°40' E 033°04'0 0.1
2014-Oct-19 17:31N 34°40' E 033°04'0 0.0
2014-Oct-19 16:31N 34°40' E 033°04'0 0.0
2014-Oct-19 15:31N 34°40' E 033°04'0 0.0
2014-Oct-19 14:28N 34°40' E 033°04'0 0.0
2014-Oct-19 13:33N 34°40' E 033°04'6 6.2
2014-Oct-19 12:33N 34°39' E 033°11'1212.0
2014-Oct-19 11:33N 34°38' E 033°26'  
2014-Oct-15 03:30N 36°06' E 026°36'1718.4
2014-Oct-15 02:33N 36°09' E 026°15'1918.5
2014-Oct-15 01:33N 36°11' E 025°52'1918.7
2014-Oct-15 00:33N 36°12' E 025°29'1918.5
2014-Oct-14 23:33N 36°23' E 025°10'1919.1
2014-Oct-14 22:33N 36°35' E 024°51'1817.9
2014-Oct-14 21:33N 36°50' E 024°41'1818.0
2014-Oct-14 20:33N 37°02' E 024°24'1918.6
2014-Oct-14 19:33N 37°14' E 024°06'1818.1
2014-Oct-14 18:33N 37°27' E 023°49'1717.5
2014-Oct-14 17:33N 37°42' E 023°40'1414.2
2014-Oct-14 16:34N 37°56' E 023°36'1 1.0
2014-Oct-14 15:31N 37°57' E 023°36'0 0.0
2014-Oct-14 14:31N 37°57' E 023°36'0 0.0
2014-Oct-14 13:31N 37°57' E 023°36'0 0.0
2014-Oct-14 12:33N 37°57' E 023°36'0 0.0
2014-Oct-14 11:33N 37°57' E 023°36'0 0.0
2014-Oct-14 10:34N 37°57' E 023°36'0 0.0
2014-Oct-14 09:33N 37°57' E 023°36'0 0.0
2014-Oct-14 08:34N 37°57' E 023°36'0 0.0
2014-Oct-14 07:34N 37°57' E 023°36'0 0.0
2014-Oct-14 06:34N 37°57' E 023°36'0 0.0
2014-Oct-14 05:34N 37°57' E 023°36'1 1.1
2014-Oct-14 04:34N 37°56' E 023°36'3 2.8
2014-Oct-14 03:33N 37°54' E 023°35'7 6.7
2014-Oct-14 02:34N 37°49' E 023°40'1615.6
2014-Oct-14 01:33N 37°34' E 023°48'4116.6
2014-Oct-13 23:05N 36°55' E 023°34'916.8
2014-Oct-13 22:33N 36°46' E 023°31'1716.9
2014-Oct-13 21:33N 36°31' E 023°21'41115.0
2014-Oct-12 18:12N 35°49' E 014°55'812.2
2014-Oct-12 17:33N 35°48' E 014°45'1110.1
2014-Oct-12 16:30N 35°49' E 014°32'0 0.4
2014-Oct-12 15:32N 35°49' E 014°33'0 0.0
2014-Oct-12 08:32N 35°49' E 014°33'0 0.0
2014-Oct-12 06:32N 35°49' E 014°33'0 0.0
2014-Oct-11 21:26N 35°49' E 014°33'3 0.5
2014-Oct-11 16:04N 35°49' E 014°36'5 5.9
2014-Oct-11 15:18N 35°51' E 014°41'0 0.0
2014-Oct-11 14:33N 35°51' E 014°41'0 0.0
2014-Oct-11 13:27N 35°51' E 014°41'0 0.0
2014-Oct-11 11:03N 35°51' E 014°41'0 0.1
2014-Oct-11 10:33N 35°51' E 014°41'0 0.1
2014-Oct-11 09:27N 35°51' E 014°41'0 0.1
2014-Oct-11 08:30N 35°51' E 014°41'0 0.0
2014-Oct-11 00:15N 35°51' E 014°41'0 0.0
2014-Oct-10 22:21N 35°51' E 014°41'0 0.0
2014-Oct-10 21:33N 35°51' E 014°41'0 0.1
2014-Oct-10 20:33N 35°51' E 014°41'0 0.0
2014-Oct-10 19:30N 35°51' E 014°41'0 0.0
2014-Oct-10 17:30N 35°51' E 014°41'0 0.0
2014-Oct-10 16:30N 35°51' E 014°41'0 0.0
2014-Oct-10 15:24N 35°51' E 014°41'0 0.0
2014-Oct-10 14:27N 35°51' E 014°41'  

Dump ship's entire track history